Time;durP1;ratioP1;P1;durP2;ratioP2;P2;SDS_P1;SDS_P2;PMS_P1;PMS_P2;Temp;Humidity;BMP_temperature;BMP_pressure;BME280_temperature;BME280_humidity;BME280_pressure;Samples;Min_cycle;Max_cycle;Signal;HPM_P1;HPM_P2
2021/03/12 00:01:06;;;;;;;4.10;0.87;;;7.60;99.90;;;;;;5046746;28;20239;-76
2021/03/12 00:03:34;;;;;;;3.00;0.93;;;7.60;99.90;;;;;;5049994;28;20309;-76
2021/03/12 00:06:11;;;;;;;3.70;1.10;;;7.70;99.90;;;;;;5044987;28;20191;-76
2021/03/12 00:08:46;;;;;;;4.47;1.30;;;7.80;99.90;;;;;;5068659;28;20204;-75
2021/03/12 00:11:13;;;;;;;8.70;1.43;;;7.60;99.90;;;;;;5047922;28;20204;-76
2021/03/12 00:13:40;;;;;;;5.80;1.00;;;7.70;99.90;;;;;;5048225;28;20230;-76
2021/03/12 00:16:08;;;;;;;3.57;1.00;;;7.60;99.90;;;;;;5049051;28;20199;-76
2021/03/12 00:18:39;;;;;;;6.47;2.07;;;7.70;99.90;;;;;;5047452;28;20611;-76
2021/03/12 00:21:07;;;;;;;8.17;1.97;;;7.60;99.90;;;;;;5059218;28;20669;-76
2021/03/12 00:23:34;;;;;;;7.20;1.73;;;7.60;99.90;;;;;;5049515;28;20211;-75
2021/03/12 00:26:01;;;;;;;4.67;1.00;;;7.60;99.90;;;;;;5046114;28;20207;-75
2021/03/12 00:28:28;;;;;;;4.97;0.97;;;7.60;99.90;;;;;;5051269;28;20265;-75
2021/03/12 00:30:54;;;;;;;3.40;0.73;;;7.60;99.90;;;;;;5034207;28;20495;-75
2021/03/12 00:33:23;;;;;;;2.50;0.90;;;7.50;99.90;;;;;;5062942;28;20302;-75
2021/03/12 00:35:51;;;;;;;2.53;0.90;;;7.60;99.90;;;;;;5059106;28;20207;-76
2021/03/12 00:38:18;;;;;;;7.00;0.77;;;7.60;99.90;;;;;;5067240;28;20249;-75
2021/03/12 00:41:05;;;;;;;7.07;1.00;;;7.50;99.90;;;;;;5064995;28;20229;-75
2021/03/12 00:43:32;;;;;;;3.30;1.43;;;7.40;99.90;;;;;;5046268;28;20211;-76
2021/03/12 00:46:02;;;;;;;5.30;0.90;;;7.50;99.90;;;;;;5062882;28;20216;-74
2021/03/12 00:48:29;;;;;;;5.60;1.33;;;7.40;99.90;;;;;;5053695;28;20277;-75
2021/03/12 00:50:55;;;;;;;4.17;1.53;;;7.40;99.90;;;;;;5032553;28;20197;-75
2021/03/12 00:53:22;;;;;;;3.17;0.80;;;7.50;99.90;;;;;;5047422;28;20221;-75
2021/03/12 00:55:49;;;;;;;8.07;1.57;;;7.40;99.90;;;;;;5035281;28;20209;-76
2021/03/12 00:58:17;;;;;;;4.83;1.47;;;7.50;99.90;;;;;;5041229;28;20205;-76
2021/03/12 01:00:43;;;;;;;4.63;2.17;;;7.50;99.90;;;;;;5063965;28;20213;-75
2021/03/12 01:03:11;;;;;;;2.93;1.07;;;7.40;99.90;;;;;;5045098;28;20238;-75
2021/03/12 01:05:39;;;;;;;7.60;1.17;;;7.40;99.90;;;;;;5046717;28;20205;-75
2021/03/12 01:08:06;;;;;;;3.33;1.10;;;7.30;99.90;;;;;;5048597;28;20272;-75
2021/03/12 01:10:34;;;;;;;4.13;1.17;;;7.30;99.90;;;;;;5044364;28;20200;-75
2021/03/12 01:13:00;;;;;;;5.53;1.40;;;7.40;99.90;;;;;;5060259;28;20266;-75
2021/03/12 01:15:27;;;;;;;5.20;1.30;;;7.30;99.90;;;;;;5039538;28;20234;-74
2021/03/12 01:17:54;;;;;;;2.77;0.60;;;7.30;99.90;;;;;;5046121;28;20201;-74
2021/03/12 01:20:24;;;;;;;3.37;1.47;;;7.30;99.90;;;;;;5058867;28;20280;-75
2021/03/12 01:22:54;;;;;;;6.23;1.93;;;7.30;99.90;;;;;;5044886;28;20263;-75
2021/03/12 01:25:23;;;;;;;7.03;1.33;;;7.20;99.90;;;;;;5060068;28;20293;-74
2021/03/12 01:27:50;;;;;;;8.70;1.13;;;7.20;99.90;;;;;;5043968;28;20275;-74
2021/03/12 01:30:34;;;;;;;11.23;1.70;;;7.20;99.90;;;;;;5046091;28;20656;-75
2021/03/12 01:33:01;;;;;;;5.23;1.50;;;7.20;99.90;;;;;;5044923;28;20196;-75
2021/03/12 01:35:28;;;;;;;3.97;0.80;;;7.30;99.90;;;;;;5062607;28;20287;-75
2021/03/12 01:37:54;;;;;;;2.07;1.37;;;7.30;99.90;;;;;;5046192;28;20273;-75
2021/03/12 01:40:23;;;;;;;4.40;1.87;;;7.40;99.90;;;;;;5045015;28;20206;-75
2021/03/12 01:42:51;;;;;;;5.13;0.90;;;7.30;99.90;;;;;;5040614;28;20573;-74
2021/03/12 01:45:29;;;;;;;7.13;1.20;;;7.40;99.90;;;;;;5044909;28;20548;-75
2021/03/12 01:47:58;;;;;;;10.03;1.50;;;7.30;99.90;;;;;;5062752;28;20552;-75
2021/03/12 01:50:26;;;;;;;3.37;0.90;;;7.30;99.90;;;;;;5042667;28;20198;-75
2021/03/12 01:52:53;;;;;;;7.37;1.57;;;7.30;99.90;;;;;;5048056;28;20214;-77
2021/03/12 01:55:31;;;;;;;5.33;1.33;;;7.20;99.90;;;;;;5060092;28;20211;-76
2021/03/12 01:57:59;;;;;;;4.23;1.20;;;7.30;99.90;;;;;;5042114;28;20364;-75
2021/03/12 02:00:25;;;;;;;5.83;1.47;;;7.20;99.90;;;;;;5061986;28;20262;-75
2021/03/12 02:02:52;;;;;;;11.23;2.00;;;7.20;99.90;;;;;;5040626;28;20237;-75
2021/03/12 02:05:19;;;;;;;8.07;1.40;;;7.20;99.90;;;;;;5047605;28;20409;-74
2021/03/12 02:07:45;;;;;;;5.27;1.47;;;7.00;99.90;;;;;;5056517;28;20192;-75
2021/03/12 02:10:21;;;;;;;6.57;1.43;;;7.10;99.90;;;;;;5045677;28;20243;-75
2021/03/12 02:13:09;;;;;;;5.23;1.40;;;7.10;99.90;;;;;;5064060;28;20297;-75
2021/03/12 02:15:45;;;;;;;2.00;0.97;;;7.10;99.90;;;;;;5059282;28;20283;-74
2021/03/12 02:18:23;;;;;;;4.17;1.40;;;7.10;99.90;;;;;;5059529;28;20416;-75
2021/03/12 02:20:58;;;;;;;4.00;1.27;;;7.10;99.90;;;;;;5055724;28;20213;-75
2021/03/12 02:23:49;;;;;;;4.07;1.33;;;7.00;99.90;;;;;;5055330;28;21004;-75
2021/03/12 02:26:30;;;;;;;3.13;1.00;;;6.90;99.90;;;;;;5055085;28;20705;-74
2021/03/12 02:29:00;;;;;;;8.13;1.23;;;6.80;99.90;;;;;;5057423;28;20522;-74
2021/03/12 02:31:27;;;;;;;8.33;1.50;;;6.90;99.90;;;;;;5042963;28;20301;-74
2021/03/12 02:33:57;;;;;;;3.83;1.30;;;6.90;99.90;;;;;;5042453;28;20209;-74
2021/03/12 02:36:28;;;;;;;2.67;1.00;;;6.80;99.90;;;;;;5062643;28;20269;-74
2021/03/12 02:38:56;;;;;;;5.37;0.93;;;6.80;99.90;;;;;;5064486;28;20251;-75
2021/03/12 02:41:25;;;;;;;9.07;1.23;;;6.70;99.90;;;;;;5043318;28;20233;-75
2021/03/12 02:43:52;;;;;;;6.33;1.17;;;6.70;99.90;;;;;;5057289;28;20295;-75
2021/03/12 02:46:20;;;;;;;8.87;2.00;;;6.70;99.90;;;;;;5048728;28;20285;-74
2021/03/12 02:48:48;;;;;;;7.73;1.23;;;6.70;99.90;;;;;;5048311;28;20216;-74
2021/03/12 02:51:16;;;;;;;3.23;1.17;;;6.60;99.90;;;;;;5050840;28;20263;-74
2021/03/12 02:53:42;;;;;;;7.17;1.17;;;6.60;99.90;;;;;;5049349;28;20218;-75
2021/03/12 02:56:10;;;;;;;2.57;0.90;;;6.50;99.90;;;;;;5051981;28;20231;-75
2021/03/12 02:58:38;;;;;;;5.17;1.10;;;6.50;99.90;;;;;;5045740;28;20699;-75
2021/03/12 03:01:08;;;;;;;4.37;1.03;;;6.50;99.90;;;;;;5061063;28;20672;-75
2021/03/12 03:03:36;;;;;;;5.33;1.07;;;6.40;99.90;;;;;;5045447;28;20226;-74
2021/03/12 03:06:04;;;;;;;4.87;1.10;;;6.40;99.90;;;;;;5061484;28;20217;-74
2021/03/12 03:08:32;;;;;;;4.60;1.07;;;6.30;99.90;;;;;;5059841;28;20277;-74
2021/03/12 03:11:01;;;;;;;4.20;1.10;;;6.30;99.90;;;;;;5061035;28;20203;-74
2021/03/12 03:13:31;;;;;;;5.60;1.27;;;6.30;99.90;;;;;;5063473;28;20214;-74
2021/03/12 03:15:59;;;;;;;2.93;1.20;;;6.30;99.90;;;;;;5067319;28;20241;-75
2021/03/12 03:18:27;;;;;;;5.67;1.60;;;6.30;99.90;;;;;;5050788;28;20333;-75
2021/03/12 03:20:55;;;;;;;6.43;1.13;;;6.20;99.90;;;;;;5048585;28;20221;-74
2021/03/12 03:23:21;;;;;;;8.87;1.07;;;6.10;99.90;;;;;;5049692;28;20261;-75
2021/03/12 03:25:47;;;;;;;5.23;1.27;;;6.10;99.90;;;;;;5048786;28;20879;-74
2021/03/12 03:28:14;;;;;;;3.93;0.83;;;6.00;99.90;;;;;;5057814;28;20828;-74
2021/03/12 03:30:40;;;;;;;3.73;0.77;;;6.00;99.90;;;;;;5048924;28;20219;-74
2021/03/12 03:33:06;;;;;;;6.57;1.20;;;5.90;99.90;;;;;;5060678;28;21015;-75
2021/03/12 03:35:33;;;;;;;2.83;1.30;;;5.90;99.90;;;;;;5054124;28;20259;-75
2021/03/12 03:38:00;;;;;;;4.90;1.50;;;5.90;99.90;;;;;;5052658;28;20274;-75
2021/03/12 03:40:27;;;;;;;4.10;0.87;;;6.00;99.90;;;;;;5053036;28;20265;-74
2021/03/12 03:42:55;;;;;;;6.10;1.13;;;5.90;99.90;;;;;;5029552;28;20223;-75
2021/03/12 03:45:22;;;;;;;5.43;0.97;;;5.80;99.90;;;;;;5050366;28;20554;-75
2021/03/12 03:47:48;;;;;;;5.97;1.40;;;5.80;99.90;;;;;;5045475;28;21246;-74
2021/03/12 03:50:16;;;;;;;11.50;1.33;;;5.80;99.90;;;;;;5063042;28;20538;-74
2021/03/12 03:52:43;;;;;;;6.40;1.00;;;5.80;99.90;;;;;;5047695;28;20223;-74
2021/03/12 03:55:11;;;;;;;3.70;1.13;;;5.80;99.90;;;;;;5051166;28;20199;-74
2021/03/12 03:57:38;;;;;;;4.80;1.13;;;5.70;99.90;;;;;;5049171;28;20229;-74
2021/03/12 04:00:07;;;;;;;4.23;0.97;;;5.60;99.90;;;;;;5062408;28;20257;-75
2021/03/12 04:02:34;;;;;;;4.50;1.67;;;5.70;99.90;;;;;;5066829;28;20276;-74
2021/03/12 04:05:04;;;;;;;8.53;1.20;;;5.70;99.90;;;;;;5047917;28;20196;-74
2021/03/12 04:07:31;;;;;;;4.60;1.07;;;5.60;99.90;;;;;;5046216;28;20279;-75
2021/03/12 04:09:58;;;;;;;3.43;1.20;;;5.60;99.90;;;;;;5067557;28;20207;-75
2021/03/12 04:12:26;;;;;;;4.40;1.37;;;5.60;99.90;;;;;;5057867;28;20262;-74
2021/03/12 04:14:52;;;;;;;4.47;1.47;;;5.60;99.90;;;;;;5059652;28;20210;-74
2021/03/12 04:17:20;;;;;;;4.30;1.50;;;5.60;99.90;;;;;;5048221;28;20894;-74
2021/03/12 04:19:47;;;;;;;3.60;1.23;;;5.50;99.90;;;;;;5061624;28;20208;-75
2021/03/12 04:22:14;;;;;;;5.40;1.10;;;5.50;99.90;;;;;;5060807;28;20250;-74
2021/03/12 04:24:41;;;;;;;4.33;1.43;;;5.50;99.90;;;;;;5032121;28;20278;-74
2021/03/12 04:27:08;;;;;;;8.33;1.43;;;5.50;99.90;;;;;;5043686;28;20193;-75
2021/03/12 04:29:34;;;;;;;4.57;1.17;;;5.50;99.90;;;;;;5060403;28;20239;-74
2021/03/12 04:32:01;;;;;;;6.63;1.10;;;5.40;99.90;;;;;;5062518;28;20265;-75
2021/03/12 04:34:28;;;;;;;4.10;1.13;;;5.50;99.90;;;;;;5044591;28;20211;-75
2021/03/12 04:36:55;;;;;;;6.93;1.90;;;5.50;99.90;;;;;;5040513;28;20259;-75
2021/03/12 04:39:22;;;;;;;6.43;1.17;;;5.40;99.90;;;;;;5048728;28;21975;-75
2021/03/12 04:41:49;;;;;;;10.50;1.80;;;5.40;99.90;;;;;;5049463;28;20280;-75
2021/03/12 04:44:16;;;;;;;4.40;1.10;;;5.40;99.90;;;;;;5048914;28;20266;-75
2021/03/12 04:46:43;;;;;;;3.40;1.00;;;5.30;99.90;;;;;;5065583;28;20199;-75
2021/03/12 04:49:11;;;;;;;5.67;1.37;;;5.30;99.90;;;;;;5062988;28;20199;-76
2021/03/12 04:51:39;;;;;;;8.87;1.93;;;5.30;99.90;;;;;;5066703;28;20334;-75
2021/03/12 04:54:10;;;;;;;6.20;1.60;;;5.30;99.90;;;;;;5068444;28;20205;-75
2021/03/12 04:56:37;;;;;;;7.90;2.10;;;5.30;99.90;;;;;;5065564;28;20196;-75
2021/03/12 04:59:04;;;;;;;5.43;1.47;;;5.30;99.90;;;;;;5044848;28;20269;-75
2021/03/12 05:01:34;;;;;;;11.97;1.60;;;5.30;99.90;;;;;;5041630;28;20669;-75
2021/03/12 05:04:05;;;;;;;9.70;2.30;;;5.20;99.90;;;;;;5046790;28;21111;-75
2021/03/12 05:06:32;;;;;;;6.97;1.90;;;5.20;99.90;;;;;;5048677;28;20207;-75
2021/03/12 05:08:59;;;;;;;10.53;1.63;;;5.20;99.90;;;;;;5058790;28;20218;-75
2021/03/12 05:11:27;;;;;;;5.17;1.57;;;5.20;99.90;;;;;;5066996;28;20291;-76
2021/03/12 05:13:54;;;;;;;6.27;1.37;;;5.20;99.90;;;;;;5046083;28;20256;-75
2021/03/12 05:16:20;;;;;;;2.83;1.17;;;5.20;99.90;;;;;;5058602;28;20199;-74
2021/03/12 05:18:47;;;;;;;7.30;1.30;;;5.20;99.90;;;;;;5062663;28;20290;-74
2021/03/12 05:21:14;;;;;;;6.47;1.57;;;5.20;99.90;;;;;;5049525;28;20552;-75
2021/03/12 05:23:41;;;;;;;8.57;1.90;;;5.20;99.90;;;;;;5045096;28;20314;-75
2021/03/12 05:26:08;;;;;;;4.90;1.67;;;5.20;99.90;;;;;;5058976;28;20253;-74
2021/03/12 05:28:34;;;;;;;5.37;1.40;;;5.20;99.90;;;;;;5058300;28;20242;-74
2021/03/12 05:31:01;;;;;;;4.37;1.67;;;5.20;99.90;;;;;;5059886;28;20196;-75
2021/03/12 05:33:27;;;;;;;7.50;1.70;;;5.30;99.90;;;;;;5043910;28;20278;-75
2021/03/12 05:35:54;;;;;;;7.80;1.80;;;5.20;99.90;;;;;;5049012;28;20249;-76
2021/03/12 05:38:20;;;;;;;4.67;1.47;;;5.10;99.90;;;;;;5044235;28;20356;-76
2021/03/12 05:40:46;;;;;;;5.50;1.67;;;5.20;99.90;;;;;;5057353;28;20284;-75
2021/03/12 05:43:13;;;;;;;7.50;2.40;;;5.10;99.90;;;;;;5055662;28;20231;-75
2021/03/12 05:45:51;;;;;;;8.20;1.10;;;5.10;99.90;;;;;;5063089;28;20724;-75
2021/03/12 05:48:19;;;;;;;6.40;2.03;;;5.10;99.90;;;;;;5046873;28;20870;-75
2021/03/12 05:50:46;;;;;;;9.87;1.53;;;5.10;99.90;;;;;;5067886;28;20627;-75
2021/03/12 05:53:13;;;;;;;3.70;1.57;;;5.10;99.90;;;;;;5028924;28;20208;-75
2021/03/12 05:55:40;;;;;;;9.77;2.63;;;5.10;99.90;;;;;;5027155;28;20303;-75
2021/03/12 05:58:06;;;;;;;10.60;2.67;;;5.10;99.90;;;;;;5060142;28;20695;-75
2021/03/12 06:00:33;;;;;;;6.73;1.77;;;5.00;99.90;;;;;;5056231;28;20224;-74
2021/03/12 06:02:59;;;;;;;2.90;1.53;;;5.10;99.90;;;;;;5050944;28;20691;-74
2021/03/12 06:05:26;;;;;;;5.60;1.37;;;5.10;99.90;;;;;;5048179;28;20200;-74
2021/03/12 06:07:52;;;;;;;8.80;2.03;;;5.00;99.90;;;;;;5058325;28;20223;-76
2021/03/12 06:10:19;;;;;;;7.40;2.33;;;5.10;99.90;;;;;;5048132;28;20298;-75
2021/03/12 06:12:50;;;;;;;4.37;1.70;;;5.00;99.90;;;;;;5045971;28;20196;-76
2021/03/12 06:15:16;;;;;;;8.43;1.97;;;5.00;99.90;;;;;;5047644;28;20268;-76
2021/03/12 06:17:47;;;;;;;6.30;1.50;;;5.00;99.90;;;;;;5041112;28;20196;-77
2021/03/12 06:20:18;;;;;;;7.80;1.70;;;5.00;99.90;;;;;;5062306;28;20238;-76
2021/03/12 06:22:57;;;;;;;3.97;1.43;;;5.10;99.90;;;;;;5045054;28;20235;-76
2021/03/12 06:25:25;;;;;;;3.87;1.67;;;5.10;99.90;;;;;;5048711;28;20249;-76
2021/03/12 06:27:53;;;;;;;6.63;1.57;;;5.20;99.90;;;;;;5048872;28;20220;-75
2021/03/12 06:30:23;;;;;;;5.73;1.27;;;5.20;99.90;;;;;;5061109;28;20636;-76
2021/03/12 06:32:54;;;;;;;11.77;1.60;;;5.20;99.90;;;;;;5062108;28;20260;-75
2021/03/12 06:35:26;;;;;;;7.57;1.77;;;5.20;99.90;;;;;;5042177;28;20206;-75
2021/03/12 06:37:53;;;;;;;8.27;1.70;;;5.20;99.90;;;;;;5059357;28;20211;-76
2021/03/12 06:40:28;;;;;;;6.07;1.77;;;5.20;99.90;;;;;;5042733;28;20202;-76
2021/03/12 06:43:13;;;;;;;6.60;1.40;;;5.20;99.90;;;;;;5044993;28;20250;-76
2021/03/12 06:45:52;;;;;;;7.33;1.30;;;5.20;99.90;;;;;;5047889;28;20188;-77
2021/03/12 06:48:23;;;;;;;7.93;1.30;;;5.30;99.90;;;;;;5059120;28;20199;-75
2021/03/12 06:50:52;;;;;;;12.20;1.80;;;5.30;99.90;;;;;;5046364;28;20196;-75
2021/03/12 06:54:04;;;;;;;4.83;1.07;;;5.30;99.90;;;;;;5063471;28;20414;-77
2021/03/12 06:56:32;;;;;;;5.83;1.30;;;5.40;99.90;;;;;;4981814;28;20218;-76
2021/03/12 06:59:03;;;;;;;9.30;1.70;;;5.40;99.90;;;;;;4934059;28;20260;-76
2021/03/12 07:01:30;;;;;;;9.63;1.90;;;5.40;99.90;;;;;;4963963;28;20280;-75
2021/03/12 07:04:16;;;;;;;5.37;1.70;;;5.40;99.90;;;;;;4948627;28;20274;-75
2021/03/12 07:06:45;;;;;;;7.97;1.73;;;5.50;99.90;;;;;;4965878;28;20213;-75
2021/03/12 07:09:11;;;;;;;4.73;1.90;;;5.50;99.90;;;;;;4946568;28;20210;-75
2021/03/12 07:11:38;;;;;;;7.00;1.20;;;5.50;99.90;;;;;;4969239;28;20289;-75
2021/03/12 07:14:05;;;;;;;17.03;1.60;;;5.60;99.90;;;;;;4962113;28;20285;-75
2021/03/12 07:16:31;;;;;;;3.03;1.30;;;5.60;99.90;;;;;;4965713;28;20781;-75
2021/03/12 07:18:58;;;;;;;11.33;1.60;;;5.60;99.90;;;;;;4965132;28;20240;-75
2021/03/12 07:21:27;;;;;;;4.47;1.60;;;5.70;99.90;;;;;;4985206;28;20249;-75
2021/03/12 07:23:59;;;;;;;9.50;2.20;;;5.80;99.90;;;;;;4983355;28;20238;-76
2021/03/12 07:26:40;;;;;;;7.60;1.57;;;5.80;99.90;;;;;;4970156;28;21311;-75
2021/03/12 07:29:09;;;;;;;8.33;1.80;;;5.90;99.90;;;;;;4985178;28;20290;-74
2021/03/12 07:31:37;;;;;;;4.43;1.50;;;5.90;99.90;;;;;;5047742;28;20265;-75
2021/03/12 07:34:10;;;;;;;20.53;2.30;;;6.00;99.90;;;;;;5048578;28;20280;-76
2021/03/12 07:36:43;;;;;;;12.73;1.97;;;6.00;99.90;;;;;;5064640;28;20203;-77
2021/03/12 07:39:14;;;;;;;8.00;1.27;;;6.00;99.90;;;;;;5065162;28;20203;-76
2021/03/12 07:41:43;;;;;;;5.83;1.80;;;6.20;99.90;;;;;;5060513;28;20215;-77
2021/03/12 07:44:14;;;;;;;11.23;1.97;;;6.10;99.90;;;;;;5064743;28;20215;-77
2021/03/12 07:46:43;;;;;;;11.70;1.17;;;6.20;99.90;;;;;;5049244;28;20200;-81
2021/03/12 07:49:28;;;;;;;9.03;1.33;;;6.20;99.90;;;;;;5046151;28;20192;-76
2021/03/12 07:51:56;;;;;;;10.37;1.40;;;6.30;99.90;;;;;;5058706;28;20635;-75
2021/03/12 07:54:38;;;;;;;5.33;1.77;;;6.40;99.90;;;;;;5044400;28;20207;-74
2021/03/12 07:57:16;;;;;;;16.10;1.83;;;6.50;99.90;;;;;;5058837;28;21063;-75
2021/03/12 07:59:48;;;;;;;18.90;2.37;;;6.60;99.90;;;;;;5047230;28;20623;-75
2021/03/12 08:02:17;;;;;;;7.63;2.40;;;6.70;99.90;;;;;;5061824;28;20673;-75
2021/03/12 08:04:47;;;;;;;13.27;2.23;;;6.70;99.90;;;;;;5047832;28;20292;-75
2021/03/12 08:07:17;;;;;;;11.23;2.67;;;6.80;99.90;;;;;;5045096;28;20203;-75
2021/03/12 08:09:45;;;;;;;7.37;1.77;;;6.90;99.90;;;;;;5055440;28;20249;-74
2021/03/12 08:12:50;;;;;;;10.17;2.60;;;7.10;99.90;;;;;;5049236;28;20209;-75
2021/03/12 08:15:18;;;;;;;10.83;2.23;;;7.10;99.90;;;;;;5062558;28;20206;-78
2021/03/12 08:18:08;;;;;;;14.30;2.17;;;7.10;99.90;;;;;;5065219;28;20679;-77
2021/03/12 08:20:41;;;;;;;9.50;2.07;;;7.20;99.90;;;;;;5037434;28;20207;-76
2021/03/12 08:23:13;;;;;;;17.43;3.07;;;7.20;99.90;;;;;;5055572;28;20293;-78
2021/03/12 08:25:40;;;;;;;5.50;1.73;;;7.40;99.90;;;;;;5043320;28;20207;-77
2021/03/12 08:28:06;;;;;;;10.00;1.60;;;7.50;99.90;;;;;;5060298;28;20255;-77
2021/03/12 08:30:35;;;;;;;7.30;2.80;;;7.50;99.90;;;;;;5058630;28;20604;-77
2021/03/12 08:33:03;;;;;;;10.53;2.57;;;7.50;99.90;;;;;;5056642;28;20267;-78
2021/03/12 08:35:39;;;;;;;6.93;1.40;;;7.60;99.90;;;;;;5063438;28;20219;-77
2021/03/12 08:38:11;;;;;;;11.50;2.47;;;7.70;99.90;;;;;;5056854;28;20614;-79
2021/03/12 08:40:42;;;;;;;10.37;2.33;;;7.70;99.90;;;;;;5057312;28;20200;-75
2021/03/12 08:43:18;;;;;;;5.13;1.57;;;7.90;99.90;;;;;;5047476;28;20240;-77
2021/03/12 08:45:51;;;;;;;14.73;2.20;;;7.70;99.90;;;;;;5045924;28;20253;-77
2021/03/12 08:48:26;;;;;;;7.77;2.30;;;7.90;99.90;;;;;;5058134;28;20221;-77
2021/03/12 08:51:02;;;;;;;16.00;2.30;;;8.00;99.90;;;;;;5059167;28;20349;-77
2021/03/12 08:53:33;;;;;;;9.13;2.10;;;8.00;99.90;;;;;;5038442;28;20253;-75
2021/03/12 08:56:03;;;;;;;9.90;1.87;;;8.10;99.90;;;;;;5046171;28;20314;-77
2021/03/12 08:58:31;;;;;;;8.37;2.33;;;7.90;99.90;;;;;;5042588;28;20249;-75
2021/03/12 09:01:00;;;;;;;8.70;1.67;;;8.00;99.90;;;;;;5057279;28;20205;-77
2021/03/12 09:03:34;;;;;;;12.63;2.17;;;7.90;99.90;;;;;;5061973;28;20210;-76
2021/03/12 09:06:07;;;;;;;7.73;1.50;;;8.00;99.90;;;;;;5063964;28;20289;-75
2021/03/12 09:08:37;;;;;;;14.07;2.47;;;8.00;99.90;;;;;;5054114;28;20226;-76
2021/03/12 09:11:09;;;;;;;6.27;2.30;;;8.40;99.90;;;;;;5046002;28;20559;-77
2021/03/12 09:13:38;;;;;;;8.07;2.33;;;8.50;99.90;;;;;;5058789;28;20557;-76
2021/03/12 09:16:07;;;;;;;8.40;2.70;;;8.30;99.90;;;;;;5050195;28;20253;-77
2021/03/12 09:18:38;;;;;;;14.17;3.03;;;8.20;99.90;;;;;;5044736;28;20209;-79
2021/03/12 09:21:11;;;;;;;14.40;3.23;;;8.10;99.90;;;;;;5033554;28;20730;-77
2021/03/12 09:23:45;;;;;;;11.53;2.70;;;8.00;99.90;;;;;;5060172;28;20780;-77
2021/03/12 09:26:16;;;;;;;8.03;2.40;;;8.00;99.90;;;;;;5060823;28;20258;-78
2021/03/12 09:28:45;;;;;;;12.97;2.80;;;8.10;99.90;;;;;;5060991;28;20231;-79
2021/03/12 09:31:14;;;;;;;4.93;1.40;;;8.10;99.90;;;;;;5057039;28;20548;-78
2021/03/12 09:33:46;;;;;;;7.07;2.30;;;8.40;99.90;;;;;;5063729;28;20229;-79
2021/03/12 09:36:46;;;;;;;10.27;1.70;;;8.60;99.90;;;;;;5044907;28;20208;-78
2021/03/12 09:39:22;;;;;;;5.30;1.33;;;8.30;99.90;;;;;;5061091;28;20225;-79
2021/03/12 09:41:52;;;;;;;9.07;2.00;;;8.30;99.90;;;;;;5050864;28;20238;-78
2021/03/12 09:44:19;;;;;;;12.80;2.00;;;8.30;99.90;;;;;;5058448;28;20306;-81
2021/03/12 09:46:54;;;;;;;9.20;2.87;;;8.20;99.90;;;;;;5047663;28;20253;-80
2021/03/12 09:49:32;;;;;;;7.33;1.77;;;8.10;99.90;;;;;;5040060;28;20210;-77
2021/03/12 09:52:05;;;;;;;8.93;2.23;;;8.10;99.90;;;;;;5059027;28;20232;-77
2021/03/12 09:54:32;;;;;;;9.87;1.60;;;8.10;99.90;;;;;;5060482;28;20218;-78
2021/03/12 09:56:59;;;;;;;25.90;3.97;;;8.20;99.90;;;;;;5047734;28;20602;-78
2021/03/12 09:59:26;;;;;;;10.83;1.70;;;8.10;99.90;;;;;;5057274;28;20208;-78
2021/03/12 10:02:06;;;;;;;9.63;2.53;;;8.00;99.90;;;;;;5061880;28;20229;-79
2021/03/12 10:04:38;;;;;;;7.70;1.73;;;8.00;99.90;;;;;;5058289;28;20229;-76
2021/03/12 10:07:09;;;;;;;16.87;2.23;;;7.90;99.90;;;;;;5046259;28;20204;-76
2021/03/12 10:09:37;;;;;;;10.70;2.00;;;7.80;99.90;;;;;;5062180;28;20213;-81
2021/03/12 10:12:14;;;;;;;9.10;2.07;;;7.80;99.90;;;;;;5046628;28;20192;-81
2021/03/12 10:14:43;;;;;;;10.23;1.90;;;7.80;99.90;;;;;;5060106;28;20203;-79
2021/03/12 10:17:09;;;;;;;9.90;1.77;;;7.70;99.90;;;;;;5061754;28;20301;-80
2021/03/12 10:20:02;;;;;;;5.50;1.67;;;7.60;99.90;;;;;;5059534;28;20627;-80
2021/03/12 10:22:37;;;;;;;9.47;1.97;;;7.50;99.90;;;;;;5032201;28;20243;-79
2021/03/12 10:25:15;;;;;;;9.97;3.00;;;7.60;99.90;;;;;;5063271;28;20294;-80
2021/03/12 10:27:53;;;;;;;6.53;2.20;;;7.60;99.90;;;;;;5059753;28;20218;-78
2021/03/12 10:30:44;;;;;;;10.40;3.07;;;7.60;99.90;;;;;;5059066;28;20195;-78
2021/03/12 10:33:22;;;;;;;6.53;1.50;;;7.50;99.90;;;;;;5057174;28;20210;-79
2021/03/12 10:35:51;;;;;;;8.67;1.90;;;7.40;99.90;;;;;;5048491;28;20283;-78
2021/03/12 10:38:21;;;;;;;4.20;1.40;;;7.40;99.90;;;;;;5048548;28;20214;-78
2021/03/12 10:40:54;;;;;;;12.40;2.30;;;7.40;99.90;;;;;;5043486;28;20206;-77
2021/03/12 10:43:24;;;;;;;12.23;2.20;;;7.40;99.90;;;;;;5047662;28;20242;-79
2021/03/12 10:45:54;;;;;;;9.10;2.03;;;7.50;99.90;;;;;;5052725;28;20226;-78
2021/03/12 10:48:26;;;;;;;10.77;2.20;;;7.50;99.90;;;;;;5054807;28;20220;-77
2021/03/12 10:51:03;;;;;;;10.97;2.97;;;7.60;99.90;;;;;;5063665;28;20841;-79
2021/03/12 10:53:55;;;;;;;5.43;2.17;;;7.70;99.90;;;;;;5056463;28;20269;-76
2021/03/12 10:56:25;;;;;;;9.37;2.23;;;7.70;99.90;;;;;;5037144;28;20212;-76
2021/03/12 10:58:53;;;;;;;10.23;2.67;;;7.70;99.90;;;;;;5054899;28;20610;-79
2021/03/12 11:01:25;;;;;;;11.40;2.53;;;7.70;99.90;;;;;;5052806;28;20200;-76
2021/03/12 11:03:53;;;;;;;11.60;2.20;;;7.90;99.90;;;;;;5047454;28;20223;-76
2021/03/12 11:06:28;;;;;;;5.20;2.40;;;7.90;99.90;;;;;;5051100;28;20231;-78
2021/03/12 11:08:55;;;;;;;6.80;2.13;;;7.90;99.90;;;;;;5059781;28;20225;-77
2021/03/12 11:11:23;;;;;;;6.37;2.10;;;8.00;99.90;;;;;;5044858;28;20642;-76
2021/03/12 11:13:51;;;;;;;12.60;1.90;;;8.00;99.90;;;;;;5057341;28;20199;-78
2021/03/12 11:16:17;;;;;;;9.90;2.90;;;8.10;99.90;;;;;;5063111;28;20241;-77
2021/03/12 11:18:44;;;;;;;14.57;2.70;;;8.20;99.90;;;;;;5040222;28;20298;-79
2021/03/12 11:21:12;;;;;;;4.73;1.93;;;8.20;99.90;;;;;;5064873;28;20383;-79
2021/03/12 11:23:44;;;;;;;7.53;2.27;;;8.30;99.90;;;;;;5045804;28;20284;-78
2021/03/12 11:26:11;;;;;;;5.50;1.60;;;8.40;99.90;;;;;;5042862;28;20534;-76
2021/03/12 11:28:37;;;;;;;4.13;1.80;;;8.40;99.90;;;;;;5048398;28;20204;-77
2021/03/12 11:31:04;;;;;;;6.97;2.17;;;8.50;99.90;;;;;;5044382;28;20637;-78
2021/03/12 11:33:31;;;;;;;9.93;2.20;;;8.70;99.90;;;;;;5057627;28;20566;-78
2021/03/12 11:36:00;;;;;;;3.33;1.63;;;8.60;99.90;;;;;;5064068;28;20215;-78
2021/03/12 11:38:28;;;;;;;5.57;1.97;;;8.60;99.90;;;;;;5045629;28;20203;-77
2021/03/12 11:40:56;;;;;;;8.70;2.23;;;8.60;99.90;;;;;;5060133;28;20254;-77
2021/03/12 11:43:23;;;;;;;8.40;2.00;;;8.60;99.90;;;;;;5050564;28;20207;-78
2021/03/12 11:45:50;;;;;;;11.73;1.80;;;8.60;99.90;;;;;;5046998;28;20241;-77
2021/03/12 11:48:21;;;;;;;6.47;1.73;;;8.50;99.90;;;;;;5065361;28;20286;-78
2021/03/12 11:50:49;;;;;;;5.83;1.50;;;8.50;99.90;;;;;;5049766;28;20347;-79
2021/03/12 11:53:15;;;;;;;4.87;1.67;;;8.50;99.90;;;;;;5032923;28;20199;-76
2021/03/12 11:55:42;;;;;;;12.57;1.47;;;8.60;99.90;;;;;;5042679;28;20206;-78
2021/03/12 11:58:09;;;;;;;5.40;1.70;;;8.70;99.90;;;;;;5029857;28;20670;-79
2021/03/12 12:00:36;;;;;;;5.90;1.90;;;8.60;99.90;;;;;;5060190;28;20662;-78
2021/03/12 12:03:04;;;;;;;7.43;1.47;;;8.60;99.90;;;;;;5058480;28;20215;-78
2021/03/12 12:05:31;;;;;;;4.90;1.80;;;8.60;99.90;;;;;;5029750;28;20210;-80
2021/03/12 12:07:58;;;;;;;10.27;1.50;;;8.50;99.90;;;;;;5040436;28;20197;-78
2021/03/12 12:10:25;;;;;;;7.23;1.40;;;8.50;99.90;;;;;;5043613;28;20201;-79
2021/03/12 12:12:56;;;;;;;4.57;1.00;;;8.50;99.90;;;;;;5063505;28;20266;-78
2021/03/12 12:15:26;;;;;;;6.07;1.50;;;8.50;99.90;;;;;;5033180;28;20199;-78
2021/03/12 12:17:59;;;;;;;5.17;1.73;;;8.50;99.90;;;;;;5047031;28;20200;-79
2021/03/12 12:20:28;;;;;;;5.17;1.80;;;8.40;99.90;;;;;;5056164;28;20200;-78
2021/03/12 12:22:54;;;;;;;9.97;1.90;;;8.50;99.90;;;;;;5053809;28;20273;-78
2021/03/12 12:25:20;;;;;;;12.23;1.77;;;8.50;99.90;;;;;;5046751;28;20272;-78
2021/03/12 12:27:47;;;;;;;8.40;1.60;;;8.60;99.90;;;;;;5040421;28;20246;-76
2021/03/12 12:30:14;;;;;;;12.50;1.83;;;8.80;99.90;;;;;;5058410;28;20238;-76
2021/03/12 12:32:43;;;;;;;10.10;1.80;;;8.90;99.90;;;;;;5043623;28;20205;-76
2021/03/12 12:35:10;;;;;;;7.90;2.40;;;8.90;99.90;;;;;;5055363;28;20258;-78
2021/03/12 12:37:38;;;;;;;9.37;1.63;;;9.00;99.90;;;;;;5048457;28;20239;-78
2021/03/12 12:40:05;;;;;;;7.20;1.27;;;9.00;99.90;;;;;;5045046;28;20239;-78
2021/03/12 12:42:33;;;;;;;8.63;1.57;;;9.00;99.90;;;;;;5054660;28;20213;-77
2021/03/12 12:44:59;;;;;;;7.10;1.47;;;9.00;99.90;;;;;;5045284;28;21359;-78
2021/03/12 12:47:26;;;;;;;9.60;1.60;;;9.20;99.90;;;;;;5028253;28;20339;-77
2021/03/12 12:49:52;;;;;;;6.37;1.73;;;9.20;99.90;;;;;;5045306;28;20206;-76
2021/03/12 12:52:19;;;;;;;5.60;1.13;;;9.30;99.90;;;;;;5026264;28;20737;-78
2021/03/12 12:54:46;;;;;;;7.83;1.30;;;9.30;99.90;;;;;;5043651;28;20241;-76
2021/03/12 12:57:14;;;;;;;3.13;1.20;;;9.30;99.90;;;;;;5042814;28;20260;-78
2021/03/12 12:59:40;;;;;;;9.63;1.70;;;9.30;99.90;;;;;;5033569;28;20207;-76
2021/03/12 13:02:07;;;;;;;5.43;1.13;;;9.30;99.90;;;;;;5043689;28;20201;-76
2021/03/12 13:04:33;;;;;;;8.43;1.43;;;9.30;99.90;;;;;;5043888;28;20989;-79
2021/03/12 13:07:00;;;;;;;5.10;1.63;;;9.40;99.90;;;;;;5037621;28;20269;-77
2021/03/12 13:09:26;;;;;;;3.37;1.23;;;9.30;99.90;;;;;;5038255;28;20268;-77